Time;durP1;ratioP1;P1;durP2;ratioP2;P2;SDS_P1;SDS_P2;PMS_P1;PMS_P2;Temp;Humidity;BMP_temperature;BMP_pressure;BME280_temperature;BME280_humidity;BME280_pressure;Samples;Min_cycle;Max_cycle;Signal;HPM_P1;HPM_P2
2023/10/26 00:02:11;;;;;;;2.25;1.83;;;;;;;1.35;100.00;97893.97;5157612;27;20050;-63
2023/10/26 00:04:37;;;;;;;2.50;2.05;;;;;;;1.32;100.00;97889.22;5158074;27;20387;-63
2023/10/26 00:07:04;;;;;;;7.03;2.25;;;;;;;1.27;100.00;97894.84;5157990;27;20046;-63
2023/10/26 00:09:30;;;;;;;2.80;1.98;;;;;;;1.18;100.00;97905.72;5157662;27;20111;-63
2023/10/26 00:11:56;;;;;;;3.10;1.75;;;;;;;1.21;100.00;97898.09;5158140;27;20050;-63
2023/10/26 00:14:22;;;;;;;1.58;1.40;;;;;;;1.20;100.00;97891.91;5161481;27;20134;-63
2023/10/26 00:16:48;;;;;;;2.03;1.73;;;;;;;1.26;100.00;97893.25;5161596;27;20182;-63
2023/10/26 00:19:14;;;;;;;2.42;1.42;;;;;;;0.95;100.00;97918.03;5161376;27;20141;-63
2023/10/26 00:21:40;;;;;;;2.17;1.38;;;;;;;1.03;100.00;97883.97;5161660;27;20046;-63
2023/10/26 00:24:07;;;;;;;5.47;1.60;;;;;;;1.02;100.00;97879.72;5161352;27;20050;-63
2023/10/26 00:26:34;;;;;;;1.90;1.45;;;;;;;0.91;100.00;97880.13;5161728;27;20047;-63
2023/10/26 00:29:00;;;;;;;1.60;1.40;;;;;;;0.88;100.00;97875.41;5161134;27;20077;-63
2023/10/26 00:31:26;;;;;;;1.42;1.33;;;;;;;1.05;100.00;97870.94;5161597;27;20388;-62
2023/10/26 00:33:52;;;;;;;3.80;1.65;;;;;;;0.84;100.00;97868.31;5161366;27;20097;-63
2023/10/26 00:36:18;;;;;;;1.60;1.48;;;;;;;0.81;100.00;97864.34;5161340;27;20345;-63
2023/10/26 00:38:44;;;;;;;3.38;1.50;;;;;;;1.03;100.00;97867.78;5161067;27;20050;-63
2023/10/26 00:41:10;;;;;;;1.30;1.20;;;;;;;0.92;100.00;97867.41;5161101;27;20141;-62
2023/10/26 00:43:37;;;;;;;2.03;1.65;;;;;;;1.04;100.00;97862.06;5161238;27;20149;-63
2023/10/26 00:46:03;;;;;;;2.08;1.23;;;;;;;0.87;100.00;97862.25;5160974;27;20149;-63
2023/10/26 00:48:29;;;;;;;1.80;1.65;;;;;;;0.97;100.00;97861.84;5161088;27;20051;-62
2023/10/26 00:50:56;;;;;;;3.15;1.45;;;;;;;0.87;100.00;97859.56;5160961;27;20093;-63
2023/10/26 00:53:22;;;;;;;4.70;1.42;;;;;;;1.03;100.00;97863.16;5161114;27;20068;-63
2023/10/26 00:55:51;;;;;;;1.52;1.30;;;;;;;0.96;100.00;97862.16;5160746;27;20050;-63
2023/10/26 00:58:18;;;;;;;3.03;1.17;;;;;;;1.02;100.00;97866.22;5161145;27;20056;-63
2023/10/26 01:00:45;;;;;;;1.85;1.13;;;;;;;0.85;100.00;97859.88;5160916;27;20382;-63
2023/10/26 01:03:12;;;;;;;3.17;1.48;;;;;;;0.86;100.00;97856.03;5160795;27;20141;-62
2023/10/26 01:05:38;;;;;;;1.85;1.13;;;;;;;0.80;100.00;97853.88;5160946;27;20153;-62
2023/10/26 01:08:04;;;;;;;1.90;1.42;;;;;;;0.78;100.00;97858.84;5160466;27;20423;-62
2023/10/26 01:10:32;;;;;;;2.50;1.48;;;;;;;0.80;100.00;97870.06;5160557;27;20051;-62
2023/10/26 01:12:58;;;;;;;1.40;1.10;;;;;;;1.04;100.00;97867.47;5160599;27;20079;-63
2023/10/26 01:15:24;;;;;;;1.58;1.42;;;;;;;0.84;100.00;97868.31;5160740;27;20056;-63
2023/10/26 01:17:51;;;;;;;1.30;1.20;;;;;;;0.92;100.00;97876.31;5160330;27;20051;-62
2023/10/26 01:20:18;;;;;;;1.27;1.17;;;;;;;0.96;100.00;97872.94;5160780;27;20052;-62
2023/10/26 01:22:44;;;;;;;1.15;1.08;;;;;;;0.72;100.00;97871.75;5160152;27;20054;-62
2023/10/26 01:25:10;;;;;;;1.13;1.02;;;;;;;0.82;100.00;97875.94;5159859;27;20199;-63
2023/10/26 01:27:37;;;;;;;1.35;1.25;;;;;;;0.91;100.00;97874.72;5160177;27;20366;-62
2023/10/26 01:30:04;;;;;;;1.15;1.08;;;;;;;0.89;100.00;97881.56;5160371;27;20201;-63
2023/10/26 01:32:29;;;;;;;2.33;1.15;;;;;;;0.88;100.00;97875.41;5160425;27;20134;-63
2023/10/26 01:34:55;;;;;;;1.70;0.68;;;;;;;0.72;100.00;97887.91;5160281;27;20093;-62
2023/10/26 01:37:21;;;;;;;0.80;0.80;;;;;;;0.52;100.00;97888.72;5160157;27;20397;-63
2023/10/26 01:39:48;;;;;;;2.47;1.10;;;;;;;0.80;100.00;97878.16;5160218;27;20089;-63
2023/10/26 01:42:14;;;;;;;1.05;0.88;;;;;;;0.69;100.00;97867.00;5160246;27;20061;-63
2023/10/26 01:44:40;;;;;;;0.95;0.95;;;;;;;0.72;100.00;97871.75;5160057;27;20138;-63
2023/10/26 01:47:06;;;;;;;0.80;0.80;;;;;;;0.68;100.00;97868.91;5160270;27;20090;-63
2023/10/26 01:49:32;;;;;;;0.80;0.80;;;;;;;0.76;100.00;97874.56;5159881;27;20051;-63
2023/10/26 01:51:58;;;;;;;0.80;0.80;;;;;;;0.49;100.00;97873.22;5160296;27;20047;-63
2023/10/26 01:54:23;;;;;;;0.80;0.80;;;;;;;0.59;100.00;97870.91;5159784;27;20061;-62
2023/10/26 01:56:50;;;;;;;1.58;0.98;;;;;;;0.81;100.00;97874.38;5160222;27;20082;-63
2023/10/26 01:59:16;;;;;;;1.00;1.00;;;;;;;0.89;100.00;97862.69;5159995;27;20138;-63
2023/10/26 02:01:42;;;;;;;1.23;1.10;;;;;;;0.96;100.00;97878.34;5159875;27;20195;-63
2023/10/26 02:04:08;;;;;;;1.27;1.08;;;;;;;0.76;100.00;97883.44;5159892;27;20449;-63
2023/10/26 02:06:34;;;;;;;0.90;0.85;;;;;;;0.81;100.00;97885.94;5159570;27;20137;-63
2023/10/26 02:09:00;;;;;;;0.60;0.60;;;;;;;0.59;100.00;97897.06;5159436;27;20054;-63
2023/10/26 02:11:26;;;;;;;0.88;0.88;;;;;;;0.85;100.00;97881.44;5159670;27;20051;-63
2023/10/26 02:13:52;;;;;;;0.80;0.80;;;;;;;0.76;100.00;97875.34;5159839;27;20092;-63
2023/10/26 02:16:20;;;;;;;1.20;1.10;;;;;;;0.92;100.00;97892.50;5159584;27;20047;-63
2023/10/26 02:18:46;;;;;;;1.80;1.20;;;;;;;0.75;100.00;97892.66;5159711;27;20426;-63
2023/10/26 02:21:12;;;;;;;0.98;0.98;;;;;;;0.81;100.00;97883.25;5159444;27;20051;-63
2023/10/26 02:23:39;;;;;;;0.88;0.80;;;;;;;0.89;100.00;97873.47;5159671;27;20391;-63
2023/10/26 02:26:05;;;;;;;0.70;0.70;;;;;;;0.88;100.00;97883.50;5159231;27;20102;-63
2023/10/26 02:28:31;;;;;;;1.33;0.90;;;;;;;0.75;100.00;97873.78;5159453;27;20138;-63
2023/10/26 02:30:57;;;;;;;0.80;0.80;;;;;;;0.75;100.00;97881.09;5159507;27;20145;-63
2023/10/26 02:33:23;;;;;;;0.80;0.80;;;;;;;0.76;100.00;97867.25;5159423;27;20051;-63
2023/10/26 02:35:49;;;;;;;1.40;1.00;;;;;;;0.77;100.00;97860.75;5159383;27;20089;-63
2023/10/26 02:38:15;;;;;;;1.92;1.00;;;;;;;0.66;100.00;97881.16;5159053;27;20394;-63
2023/10/26 02:40:41;;;;;;;1.20;1.00;;;;;;;0.49;100.00;97863.22;5159182;27;20051;-63
2023/10/26 02:43:07;;;;;;;0.60;0.60;;;;;;;0.67;100.00;97861.94;5159073;27;20097;-62
2023/10/26 02:45:33;;;;;;;1.15;0.93;;;;;;;0.81;100.00;97850.09;5159225;27;20046;-63
2023/10/26 02:47:59;;;;;;;2.28;1.00;;;;;;;0.60;100.00;97847.41;5158962;27;20050;-63
2023/10/26 02:50:25;;;;;;;1.13;1.10;;;;;;;0.91;100.00;97842.34;5159371;27;20137;-63
2023/10/26 02:52:51;;;;;;;1.38;1.20;;;;;;;0.79;100.00;97849.63;5158762;27;20061;-63
2023/10/26 02:55:17;;;;;;;1.13;1.02;;;;;;;0.89;100.00;97843.81;5159292;27;20099;-63
2023/10/26 02:57:43;;;;;;;1.17;1.05;;;;;;;0.80;100.00;97845.78;5158749;27;20137;-62
2023/10/26 03:00:12;;;;;;;1.88;1.17;;;;;;;0.68;100.00;97852.72;5158899;27;20053;-63
2023/10/26 03:02:38;;;;;;;1.15;0.95;;;;;;;0.77;100.00;97858.06;5158696;27;20051;-62
2023/10/26 03:05:05;;;;;;;7.78;1.02;;;;;;;0.58;100.00;97849.66;5158846;27;20081;-62
2023/10/26 03:07:31;;;;;;;0.93;0.93;;;;;;;0.59;100.00;97846.63;5158706;27;20046;-63
2023/10/26 03:09:57;;;;;;;1.38;0.80;;;;;;;0.63;100.00;97852.94;5158732;27;20110;-63
2023/10/26 03:12:23;;;;;;;1.05;0.90;;;;;;;0.80;100.00;97852.00;5158810;27;20077;-63
2023/10/26 03:14:49;;;;;;;0.90;0.90;;;;;;;0.82;100.00;97844.34;5158487;27;20050;-63
2023/10/26 03:17:15;;;;;;;1.50;1.15;;;;;;;0.61;100.00;97849.00;5158785;27;20136;-63
2023/10/26 03:19:42;;;;;;;1.58;1.00;;;;;;;0.69;100.00;97848.91;5158525;27;20069;-63
2023/10/26 03:22:08;;;;;;;1.75;1.02;;;;;;;0.70;100.00;97850.50;5158775;27;20057;-63
2023/10/26 03:24:34;;;;;;;1.67;1.15;;;;;;;0.60;100.00;97842.81;5158284;27;20389;-63
2023/10/26 03:27:00;;;;;;;2.30;1.10;;;;;;;0.67;100.00;97837.69;5158231;27;20092;-63
2023/10/26 03:29:26;;;;;;;1.20;1.10;;;;;;;0.75;100.00;97844.09;5158312;27;20062;-63
2023/10/26 03:31:52;;;;;;;0.93;0.90;;;;;;;0.58;100.00;97855.06;5158449;27;20058;-63
2023/10/26 03:34:18;;;;;;;1.30;1.20;;;;;;;0.62;100.00;97854.06;5158392;27;20334;-63
2023/10/26 03:36:44;;;;;;;1.30;1.20;;;;;;;0.63;100.00;97846.75;5158408;27;20065;-63
2023/10/26 03:39:10;;;;;;;0.90;0.90;;;;;;;0.56;100.00;97846.50;5158325;27;20468;-63
2023/10/26 03:41:36;;;;;;;1.70;1.55;;;;;;;0.74;100.00;97839.06;5158170;27;20042;-63
2023/10/26 03:44:02;;;;;;;1.00;0.90;;;;;;;0.83;100.00;97842.44;5158225;27;20443;-63
2023/10/26 03:46:28;;;;;;;1.40;1.30;;;;;;;0.80;100.00;97838.50;5157889;27;20047;-63
2023/10/26 03:48:54;;;;;;;1.17;1.00;;;;;;;0.77;100.00;97849.97;5158088;27;20467;-63
2023/10/26 03:51:20;;;;;;;0.93;0.93;;;;;;;0.66;100.00;97864.97;5157944;27;20099;-63
2023/10/26 03:53:46;;;;;;;1.25;1.15;;;;;;;0.69;100.00;97853.50;5158365;27;20055;-63
2023/10/26 03:56:13;;;;;;;1.20;1.15;;;;;;;0.59;100.00;97853.94;5157875;27;20062;-63
2023/10/26 03:58:39;;;;;;;1.55;1.15;;;;;;;0.68;100.00;97839.25;5157846;27;20404;-63
2023/10/26 04:01:05;;;;;;;1.42;1.33;;;;;;;0.48;100.00;97848.16;5158175;27;20146;-63
2023/10/26 04:03:31;;;;;;;1.27;1.08;;;;;;;0.51;100.00;97836.72;5157974;27;20357;-63
2023/10/26 04:05:57;;;;;;;1.58;1.30;;;;;;;0.53;100.00;97842.53;5158177;27;20046;-63
2023/10/26 04:08:23;;;;;;;1.92;1.40;;;;;;;0.65;100.00;97839.91;5157874;27;20128;-63
2023/10/26 04:10:49;;;;;;;2.30;1.50;;;;;;;0.67;100.00;97826.09;5157995;27;20102;-63
2023/10/26 04:13:16;;;;;;;1.73;1.30;;;;;;;0.66;100.00;97829.91;5157791;27;20361;-63
2023/10/26 04:15:42;;;;;;;1.40;1.30;;;;;;;0.58;100.00;97842.34;5157822;27;20362;-63
2023/10/26 04:18:07;;;;;;;1.95;1.30;;;;;;;0.50;100.00;97837.84;5157590;27;20138;-63
2023/10/26 04:20:33;;;;;;;1.20;1.10;;;;;;;0.74;100.00;97841.75;5158011;27;20077;-63
2023/10/26 04:22:59;;;;;;;1.67;1.50;;;;;;;0.76;100.00;97847.59;5157517;27;20146;-62
2023/10/26 04:25:27;;;;;;;3.47;1.70;;;;;;;0.83;100.00;97843.22;5157932;27;20089;-63
2023/10/26 04:27:55;;;;;;;1.27;1.17;;;;;;;0.56;100.00;97854.59;5157727;27;20053;-63
2023/10/26 04:30:22;;;;;;;1.48;1.38;;;;;;;0.80;100.00;97835.81;5157401;27;20051;-63
2023/10/26 04:32:48;;;;;;;1.33;1.10;;;;;;;0.71;100.00;97848.59;5157785;27;20138;-63
2023/10/26 04:35:14;;;;;;;1.33;1.23;;;;;;;0.66;100.00;97864.97;5157501;27;20050;-63
2023/10/26 04:37:40;;;;;;;1.52;1.40;;;;;;;0.55;100.00;97863.81;5157729;27;20054;-63
2023/10/26 04:40:07;;;;;;;2.72;1.35;;;;;;;0.64;100.00;97859.13;5157285;27;20457;-63
2023/10/26 04:42:33;;;;;;;1.48;1.33;;;;;;;0.74;100.00;97872.22;5157637;27;20387;-63
2023/10/26 04:44:59;;;;;;;8.38;1.65;;;;;;;0.63;100.00;97868.31;5157182;27;20050;-63
2023/10/26 04:47:26;;;;;;;1.92;1.38;;;;;;;0.60;100.00;97867.09;5157572;27;20082;-63
2023/10/26 04:49:51;;;;;;;2.28;1.58;;;;;;;0.73;100.00;97854.41;5156954;27;20133;-63
2023/10/26 04:52:20;;;;;;;1.33;1.23;;;;;;;0.52;100.00;97867.94;5157434;27;20214;-63
2023/10/26 04:54:46;;;;;;;1.67;1.40;;;;;;;0.64;100.00;97854.53;5157056;27;20141;-63
2023/10/26 04:57:12;;;;;;;2.33;1.60;;;;;;;0.64;100.00;97869.91;5157234;27;20062;-63
2023/10/26 04:59:38;;;;;;;1.30;1.20;;;;;;;0.52;100.00;97872.56;5158467;27;20408;-63
2023/10/26 05:02:04;;;;;;;1.40;1.30;;;;;;;0.67;100.00;97871.97;5160722;27;20103;-63
2023/10/26 05:04:30;;;;;;;1.90;1.40;;;;;;;0.57;100.00;97888.53;5160808;27;20154;-63
2023/10/26 05:06:57;;;;;;;1.23;1.20;;;;;;;0.51;100.00;97871.78;5159975;27;20050;-62
2023/10/26 05:09:23;;;;;;;1.65;1.23;;;;;;;0.70;100.00;97880.19;5159614;27;20133;-63
2023/10/26 05:11:49;;;;;;;4.60;1.15;;;;;;;0.73;100.00;97851.72;5152116;27;20130;-63
2023/10/26 05:14:15;;;;;;;1.45;1.35;;;;;;;0.99;100.00;97856.09;5154928;27;20055;-64
2023/10/26 05:16:41;;;;;;;1.50;1.40;;;;;;;1.10;100.00;97857.22;5160341;27;20078;-63
2023/10/26 05:19:07;;;;;;;1.60;1.50;;;;;;;0.97;100.00;97872.63;5160701;27;20050;-62
2023/10/26 05:21:34;;;;;;;1.30;1.20;;;;;;;0.98;100.00;97876.88;5160093;27;20051;-64
2023/10/26 05:24:00;;;;;;;2.63;1.40;;;;;;;0.95;100.00;97888.34;5160433;27;20055;-63
2023/10/26 05:26:25;;;;;;;1.52;1.30;;;;;;;0.80;100.00;97900.56;5159816;27;20042;-63
2023/10/26 05:28:51;;;;;;;2.03;1.33;;;;;;;0.81;100.00;97895.94;5160170;27;20055;-63
2023/10/26 05:31:17;;;;;;;1.27;1.17;;;;;;;0.85;100.00;97908.44;5160267;27;20053;-63
2023/10/26 05:33:43;;;;;;;1.50;1.40;;;;;;;0.98;100.00;97911.19;5160071;27;20047;-60
2023/10/26 05:36:09;;;;;;;1.08;1.00;;;;;;;0.90;100.00;97927.13;5160254;27;20051;-61
2023/10/26 05:38:36;;;;;;;1.48;1.23;;;;;;;0.85;100.00;97918.44;5160000;27;20066;-61
2023/10/26 05:41:02;;;;;;;1.80;1.50;;;;;;;0.87;100.00;97922.41;5160076;27;20046;-62
2023/10/26 05:43:28;;;;;;;1.75;1.33;;;;;;;0.67;100.00;97934.78;5159807;27;20047;-61
2023/10/26 05:46:01;;;;;;;4.38;1.50;;;;;;;0.79;100.00;97920.53;5160017;27;20361;-61
2023/10/26 05:48:27;;;;;;;1.75;1.10;;;;;;;0.68;100.00;97920.16;5159741;27;20432;-61
2023/10/26 05:50:52;;;;;;;1.13;1.08;;;;;;;0.68;100.00;97922.88;5160173;27;20060;-63
2023/10/26 05:53:18;;;;;;;1.55;1.20;;;;;;;0.40;100.00;97922.63;5159947;27;20051;-62
2023/10/26 05:55:55;;;;;;;1.58;1.40;;;;;;;0.66;100.00;97903.50;5159533;27;20046;-63
2023/10/26 05:58:21;;;;;;;1.30;1.20;;;;;;;0.65;100.00;97893.84;5159834;27;20081;-61
2023/10/26 06:00:47;;;;;;;1.48;1.38;;;;;;;0.94;100.00;97895.66;5159443;27;20400;-62
2023/10/26 06:03:13;;;;;;;1.13;1.13;;;;;;;0.96;100.00;97902.63;5159805;27;20097;-62
2023/10/26 06:05:39;;;;;;;1.20;1.10;;;;;;;0.82;100.00;97903.69;5159626;27;20047;-62
2023/10/26 06:08:05;;;;;;;1.42;1.33;;;;;;;0.73;100.00;97899.50;5159830;27;20074;-62
2023/10/26 06:10:31;;;;;;;1.35;1.25;;;;;;;0.72;100.00;97898.72;5158977;27;20450;-63
2023/10/26 06:12:57;;;;;;;1.17;1.05;;;;;;;0.67;100.00;97902.41;5159660;27;20138;-61
2023/10/26 06:15:23;;;;;;;3.20;1.55;;;;;;;0.69;100.00;97896.66;5159286;27;20053;-62
2023/10/26 06:17:50;;;;;;;1.27;1.17;;;;;;;0.81;100.00;97898.66;5159647;27;20046;-62
2023/10/26 06:20:17;;;;;;;0.90;0.90;;;;;;;0.53;100.00;97904.56;5159022;27;20133;-63
2023/10/26 06:22:43;;;;;;;0.75;0.75;;;;;;;0.52;100.00;97889.50;5159317;27;20054;-61
2023/10/26 06:25:09;;;;;;;1.10;1.02;;;;;;;0.89;100.00;97886.97;5159359;27;20465;-62
2023/10/26 06:27:35;;;;;;;0.95;0.95;;;;;;;0.68;100.00;97905.91;5159239;27;20047;-62
2023/10/26 06:30:01;;;;;;;6.72;1.13;;;;;;;0.82;100.00;97895.59;5159064;27;20411;-62
2023/10/26 06:32:27;;;;;;;1.17;1.08;;;;;;;1.11;100.00;97894.69;5159119;27;20552;-63
2023/10/26 06:34:59;;;;;;;1.30;1.00;;;;;;;0.95;100.00;97909.94;5159237;27;20137;-62
2023/10/26 06:37:25;;;;;;;1.25;1.15;;;;;;;1.05;100.00;97912.22;5158803;27;20123;-61
2023/10/26 06:39:51;;;;;;;4.18;1.05;;;;;;;1.03;100.00;97917.16;5159181;27;20459;-61
2023/10/26 06:42:17;;;;;;;1.00;1.00;;;;;;;0.94;100.00;97922.66;5158459;27;20051;-62
2023/10/26 06:44:43;;;;;;;0.82;0.82;;;;;;;0.67;100.00;97934.00;5159062;27;20061;-61
2023/10/26 06:47:10;;;;;;;1.08;1.00;;;;;;;0.44;100.00;97925.44;5158453;27;20050;-63
2023/10/26 06:49:36;;;;;;;1.48;0.85;;;;;;;0.63;100.00;97900.69;5158585;27;20137;-61
2023/10/26 06:52:02;;;;;;;1.10;1.00;;;;;;;0.69;100.00;97902.06;5158871;27;20110;-62
2023/10/26 06:54:28;;;;;;;1.35;1.30;;;;;;;0.80;100.00;97891.66;5158539;27;20396;-62
2023/10/26 06:56:55;;;;;;;1.50;0.90;;;;;;;1.02;100.00;97891.28;5158884;27;20046;-64
2023/10/26 06:59:21;;;;;;;1.23;1.10;;;;;;;0.94;100.00;97897.56;5158346;27;20141;-62
2023/10/26 07:01:47;;;;;;;0.80;0.80;;;;;;;0.81;100.00;97896.72;5158854;27;20102;-62
2023/10/26 07:04:13;;;;;;;1.05;0.93;;;;;;;0.75;100.00;97897.28;5158339;27;20054;-62
2023/10/26 07:06:39;;;;;;;0.85;0.85;;;;;;;0.77;100.00;97903.91;5158381;27;20399;-62
2023/10/26 07:09:06;;;;;;;1.15;1.13;;;;;;;0.89;100.00;97897.75;5158367;27;20089;-62
2023/10/26 07:11:32;;;;;;;3.50;1.27;;;;;;;0.80;100.00;97897.88;5158614;27;20046;-62
2023/10/26 07:13:58;;;;;;;0.93;0.70;;;;;;;0.86;100.00;97891.13;5158253;27;20061;-62
2023/10/26 07:16:24;;;;;;;4.95;1.10;;;;;;;0.75;100.00;97902.66;5158626;27;20047;-62
2023/10/26 07:18:50;;;;;;;3.58;1.20;;;;;;;0.98;100.00;97893.09;5158346;27;20103;-62
2023/10/26 07:21:17;;;;;;;5.10;1.55;;;;;;;1.02;100.00;97893.22;5157999;27;20118;-61
2023/10/26 07:23:43;;;;;;;3.45;1.35;;;;;;;1.14;100.00;97901.34;5157820;27;20146;-61
2023/10/26 07:26:08;;;;;;;5.20;1.50;;;;;;;0.87;100.00;97911.59;5158008;27;20419;-61
2023/10/26 07:28:34;;;;;;;1.48;1.38;;;;;;;0.57;100.00;97919.00;5158118;27;20050;-62
2023/10/26 07:31:00;;;;;;;2.53;1.30;;;;;;;0.85;100.00;97899.56;5157939;27;20062;-62
2023/10/26 07:33:26;;;;;;;1.25;1.15;;;;;;;0.90;100.00;97889.34;5158375;27;20087;-62
2023/10/26 07:35:55;;;;;;;1.02;0.93;;;;;;;0.63;100.00;97898.00;5158306;27;20051;-62
2023/10/26 07:38:24;;;;;;;1.30;1.17;;;;;;;0.46;100.00;97893.53;5158204;27;20085;-62
2023/10/26 07:40:52;;;;;;;1.08;1.02;;;;;;;0.91;100.00;97873.94;5157816;27;20153;-62
2023/10/26 07:43:18;;;;;;;0.90;0.90;;;;;;;0.72;100.00;97882.53;5158355;27;20042;-63
2023/10/26 07:45:46;;;;;;;1.02;1.00;;;;;;;0.90;100.00;97878.56;5157764;27;20058;-62
2023/10/26 07:48:12;;;;;;;0.85;0.70;;;;;;;0.57;100.00;97877.75;5158043;27;20182;-62
2023/10/26 07:50:38;;;;;;;1.55;1.02;;;;;;;0.64;100.00;97888.78;5158154;27;20388;-62
2023/10/26 07:53:06;;;;;;;1.65;0.90;;;;;;;0.67;100.00;97869.25;5157748;27;20055;-61
2023/10/26 07:55:33;;;;;;;1.45;1.35;;;;;;;0.91;100.00;97860.47;5157845;27;20086;-62
2023/10/26 07:57:59;;;;;;;1.85;1.10;;;;;;;0.98;100.00;97862.63;5157883;27;20046;-61
2023/10/26 08:00:25;;;;;;;1.45;1.23;;;;;;;0.89;100.00;97868.88;5158028;27;20153;-62
2023/10/26 08:02:51;;;;;;;1.52;1.10;;;;;;;0.88;100.00;97888.09;5157608;27;20047;-62
2023/10/26 08:05:17;;;;;;;1.42;1.10;;;;;;;1.01;100.00;97867.34;5157953;27;20078;-66
2023/10/26 08:07:44;;;;;;;1.70;1.20;;;;;;;0.89;100.00;97881.56;5157497;27;20402;-62
2023/10/26 08:10:10;;;;;;;3.72;1.13;;;;;;;1.08;100.00;97878.38;5157882;27;20055;-61
2023/10/26 08:12:37;;;;;;;1.05;0.88;;;;;;;1.04;100.00;97890.97;5157445;27;20062;-62
2023/10/26 08:15:04;;;;;;;1.75;1.08;;;;;;;0.95;100.00;97891.03;5157814;27;20061;-62
2023/10/26 08:17:34;;;;;;;0.90;0.90;;;;;;;1.16;100.00;97894.47;5157338;27;20062;-61
2023/10/26 08:20:01;;;;;;;1.38;1.27;;;;;;;0.97;100.00;97912.28;5157612;27;20075;-62
2023/10/26 08:22:28;;;;;;;1.02;0.90;;;;;;;0.91;100.00;97895.53;5157599;27;20062;-62
2023/10/26 08:24:54;;;;;;;0.80;0.80;;;;;;;0.57;100.00;97908.22;5157471;27;20118;-63
2023/10/26 08:27:19;;;;;;;3.25;1.40;;;;;;;0.90;100.00;97893.94;5157563;27;20613;-62
2023/10/26 08:29:46;;;;;;;1.40;1.30;;;;;;;0.87;100.00;97884.63;5157376;27;20051;-62
2023/10/26 08:32:12;;;;;;;0.93;0.93;;;;;;;0.99;100.00;97886.56;5157577;27;20137;-62
2023/10/26 08:34:38;;;;;;;0.80;0.80;;;;;;;0.76;100.00;97893.44;5160050;27;20065;-62
2023/10/26 08:37:04;;;;;;;1.40;1.25;;;;;;;1.03;100.00;97897.47;5161070;27;20057;-62
2023/10/26 08:39:30;;;;;;;2.22;1.27;;;;;;;1.14;100.00;97902.13;5160766;27;20050;-62
2023/10/26 08:41:58;;;;;;;1.23;1.20;;;;;;;1.12;100.00;97907.06;5161162;27;20096;-63
2023/10/26 08:44:25;;;;;;;5.28;2.15;;;;;;;0.80;100.00;97918.63;5160903;27;20126;-63
2023/10/26 08:46:53;;;;;;;1.40;1.20;;;;;;;0.99;100.00;97915.47;5160890;27;20051;-62
2023/10/26 08:49:22;;;;;;;1.98;1.10;;;;;;;1.02;100.00;97914.78;5160691;27;20430;-62
2023/10/26 08:51:48;;;;;;;1.23;1.13;;;;;;;1.02;100.00;97918.28;5160679;27;20138;-62
2023/10/26 08:54:14;;;;;;;1.27;1.10;;;;;;;1.06;100.00;97921.09;5160886;27;20387;-62
2023/10/26 08:56:40;;;;;;;1.13;1.02;;;;;;;1.12;100.00;97915.16;5160568;27;20050;-62
2023/10/26 08:59:06;;;;;;;1.27;1.15;;;;;;;1.38;100.00;97909.50;5160788;27;20050;-63
2023/10/26 09:01:32;;;;;;;1.02;1.00;;;;;;;1.09;100.00;97929.31;5160503;27;20141;-64
2023/10/26 09:04:07;;;;;;;2.00;1.27;;;;;;;1.41;100.00;97930.44;5160790;27;20194;-63
2023/10/26 09:06:43;;;;;;;1.42;1.15;;;;;;;1.38;100.00;97936.50;5160318;27;20050;-63
2023/10/26 09:09:09;;;;;;;1.63;1.10;;;;;;;1.21;100.00;97947.47;5160446;27;20145;-64
2023/10/26 09:11:35;;;;;;;1.25;1.17;;;;;;;1.10;100.00;97941.72;5160177;27;20051;-63
2023/10/26 09:14:12;;;;;;;1.40;1.30;;;;;;;1.18;100.00;97942.75;5160197;27;20075;-62
2023/10/26 09:16:39;;;;;;;1.75;1.55;;;;;;;1.49;100.00;97936.06;5160344;27;20137;-63
2023/10/26 09:19:06;;;;;;;2.15;1.20;;;;;;;1.28;100.00;97945.03;5160305;27;20364;-62
2023/10/26 09:21:47;;;;;;;1.02;1.00;;;;;;;1.09;100.00;97940.13;5160523;27;20073;-63
2023/10/26 09:24:18;;;;;;;1.35;1.25;;;;;;;1.51;100.00;97929.22;5160107;27;20055;-62
2023/10/26 09:26:43;;;;;;;1.38;1.20;;;;;;;1.36;100.00;97937.94;5160498;27;20133;-61
2023/10/26 09:29:10;;;;;;;0.95;0.95;;;;;;;0.98;100.00;97944.34;5160080;27;20300;-63
2023/10/26 09:31:50;;;;;;;1.25;1.00;;;;;;;1.14;100.00;97939.91;5160270;27;20058;-61
2023/10/26 09:34:17;;;;;;;1.13;1.02;;;;;;;1.07;100.00;97936.97;5160214;27;20050;-63
2023/10/26 09:36:56;;;;;;;2.03;1.10;;;;;;;1.05;100.00;97933.81;5160249;27;20069;-63
2023/10/26 09:39:22;;;;;;;1.90;1.00;;;;;;;1.20;100.00;97918.09;5160078;27;20439;-63
2023/10/26 09:41:49;;;;;;;1.40;1.30;;;;;;;1.17;100.00;97914.19;5159929;27;20141;-62
2023/10/26 09:44:15;;;;;;;1.75;1.35;;;;;;;1.15;100.00;97908.31;5159995;27;20141;-63
2023/10/26 09:46:42;;;;;;;1.40;1.30;;;;;;;1.09;100.00;97923.13;5159032;27;20047;-61
2023/10/26 09:49:08;;;;;;;2.00;1.13;;;;;;;1.20;100.00;97907.31;5160438;27;20133;-63
2023/10/26 09:51:34;;;;;;;1.48;1.10;;;;;;;0.97;100.00;97910.41;5159636;27;20054;-62
2023/10/26 09:54:04;;;;;;;2.05;1.48;;;;;;;1.04;100.00;97878.25;5160121;27;20141;-62
2023/10/26 09:56:32;;;;;;;1.23;1.13;;;;;;;1.12;100.00;97873.88;5159428;27;20051;-61
2023/10/26 09:58:59;;;;;;;2.47;0.90;;;;;;;0.86;100.00;97879.53;5159532;27;20046;-63
2023/10/26 10:01:33;;;;;;;1.17;1.08;;;;;;;1.28;100.00;97864.03;5159156;27;20103;-63
2023/10/26 10:03:59;;;;;;;1.50;1.40;;;;;;;1.32;100.00;97869.53;5159337;27;20050;-62
2023/10/26 10:06:48;;;;;;;0.90;0.73;;;;;;;1.20;100.00;97878.41;5159579;27;20046;-62
2023/10/26 10:09:18;;;;;;;0.70;0.70;;;;;;;1.17;100.00;97871.78;5159310;27;20183;-65
2023/10/26 10:11:44;;;;;;;0.65;0.65;;;;;;;1.23;100.00;97880.44;5159874;27;20051;-61
2023/10/26 10:14:50;;;;;;;0.60;0.60;;;;;;;0.91;100.00;97872.03;5159100;27;20058;-62
2023/10/26 10:17:17;;;;;;;0.90;0.90;;;;;;;1.55;100.00;97864.50;5158756;27;20058;-61
2023/10/26 10:19:46;;;;;;;1.00;1.00;;;;;;;1.26;100.00;97865.47;5159171;27;20336;-61
2023/10/26 10:22:45;;;;;;;1.08;1.08;;;;;;;1.15;100.00;97870.53;5159184;27;20383;-61
2023/10/26 10:25:13;;;;;;;1.15;1.05;;;;;;;1.04;100.00;97870.16;5159505;27;20054;-61
2023/10/26 10:27:40;;;;;;;1.35;1.00;;;;;;;1.02;100.00;97858.13;5159047;27;20047;-62
2023/10/26 10:30:09;;;;;;;2.50;1.00;;;;;;;1.33;100.00;97844.91;5159448;27;20312;-60
2023/10/26 10:32:49;;;;;;;3.95;1.67;;;;;;;1.31;100.00;97851.78;5159191;27;20142;-61
2023/10/26 10:35:37;;;;;;;0.95;0.95;;;;;;;1.26;100.00;97858.16;5159241;27;20046;-60
2023/10/26 10:38:20;;;;;;;2.75;1.33;;;;;;;1.44;100.00;97844.47;5159088;27;20390;-61
2023/10/26 10:41:09;;;;;;;1.10;1.08;;;;;;;1.46;100.00;97855.72;5158655;27;20407;-61
2023/10/26 10:43:37;;;;;;;1.90;1.02;;;;;;;1.26;100.00;97868.97;5159048;27;20053;-61
2023/10/26 10:46:11;;;;;;;1.70;1.10;;;;;;;1.12;100.00;97876.59;5158919;27;20082;-62
2023/10/26 10:48:56;;;;;;;1.73;1.20;;;;;;;1.08;100.00;97862.97;5158951;27;20110;-61
2023/10/26 10:51:22;;;;;;;1.98;1.10;;;;;;;1.23;100.00;97848.03;5159019;27;20059;-62
2023/10/26 10:53:50;;;;;;;1.10;1.00;;;;;;;1.20;100.00;97853.31;5158528;27;20145;-62
2023/10/26 10:56:16;;;;;;;0.90;0.90;;;;;;;1.31;100.00;97846.38;5158134;27;20047;-63
2023/10/26 10:58:42;;;;;;;2.72;1.10;;;;;;;1.29;100.00;97865.59;5158124;27;20491;-62
2023/10/26 11:01:08;;;;;;;1.48;0.95;;;;;;;0.98;100.00;97854.53;5159027;27;20054;-63
2023/10/26 11:03:35;;;;;;;1.00;0.90;;;;;;;1.10;100.00;97844.53;5158424;27;20054;-63
2023/10/26 11:06:01;;;;;;;1.48;1.05;;;;;;;1.30;100.00;97842.88;5159002;27;20047;-62
2023/10/26 11:08:27;;;;;;;4.25;1.20;;;;;;;1.53;100.00;97847.84;5158613;27;20047;-62
2023/10/26 11:10:54;;;;;;;0.80;0.80;;;;;;;1.58;100.00;97853.81;5158258;27;20382;-62
2023/10/26 11:13:21;;;;;;;8.07;1.58;;;;;;;1.57;100.00;97873.06;5158647;27;20059;-62
2023/10/26 11:15:48;;;;;;;1.13;1.02;;;;;;;1.34;100.00;97886.22;5158275;27;20420;-64
2023/10/26 11:18:14;;;;;;;1.33;1.20;;;;;;;1.37;100.00;97890.94;5158428;27;20350;-62
2023/10/26 11:20:42;;;;;;;1.75;1.10;;;;;;;1.30;100.00;97886.09;5158230;27;20424;-62
2023/10/26 11:23:09;;;;;;;4.10;1.10;;;;;;;1.39;100.00;97881.34;5158541;27;20047;-60
2023/10/26 11:25:35;;;;;;;2.58;1.10;;;;;;;1.49;100.00;97882.06;5158227;27;20074;-61
2023/10/26 11:28:01;;;;;;;4.60;1.00;;;;;;;1.53;100.00;97885.66;5158495;27;20225;-61
2023/10/26 11:30:28;;;;;;;1.63;1.42;;;;;;;1.52;100.00;97882.16;5158007;27;20448;-63
2023/10/26 11:32:54;;;;;;;1.05;0.80;;;;;;;1.31;100.00;97887.66;5158508;27;20078;-62
2023/10/26 11:35:20;;;;;;;0.80;0.77;;;;;;;1.53;100.00;97882.94;5158037;27;20082;-62